createdAt,value
2018-07-08T00:00:16.654Z,0
2018-07-08T00:00:56.937Z,0
2018-07-08T00:01:37.308Z,0
2018-07-08T00:02:17.830Z,0
2018-07-08T00:02:58.144Z,0
2018-07-08T00:03:38.542Z,0
2018-07-08T00:04:18.950Z,0
2018-07-08T00:04:59.329Z,0
2018-07-08T00:05:39.764Z,0
2018-07-08T00:06:20.192Z,0
2018-07-08T00:07:00.621Z,0
2018-07-08T00:07:41.089Z,0
2018-07-08T00:08:21.645Z,0
2018-07-08T00:09:02.126Z,0
2018-07-08T00:09:42.629Z,0
2018-07-08T00:10:22.841Z,0
2018-07-08T00:11:03.296Z,0
2018-07-08T00:11:43.707Z,0
2018-07-08T00:12:24.090Z,0
2018-07-08T00:13:04.553Z,0
2018-07-08T00:13:45.004Z,0
2018-07-08T00:14:25.389Z,0
2018-07-08T00:15:05.807Z,0
2018-07-08T00:15:46.205Z,0
2018-07-08T00:16:26.582Z,0
2018-07-08T00:17:07.061Z,0
2018-07-08T00:17:47.400Z,0
2018-07-08T00:18:27.763Z,0
2018-07-08T00:19:08.186Z,0
2018-07-08T00:19:48.678Z,0
2018-07-08T00:20:28.977Z,0
2018-07-08T00:21:09.462Z,0
2018-07-08T00:21:49.891Z,0
2018-07-08T00:22:30.273Z,0
2018-07-08T00:23:10.704Z,0
2018-07-08T00:23:51.177Z,0
2018-07-08T00:24:31.566Z,0
2018-07-08T00:25:11.946Z,0
2018-07-08T00:25:52.366Z,0
2018-07-08T00:26:32.787Z,0
2018-07-08T00:27:13.183Z,0
2018-07-08T00:27:53.624Z,0
2018-07-08T00:28:34.069Z,0
2018-07-08T00:29:14.498Z,0
2018-07-08T00:29:54.843Z,0
2018-07-08T00:30:35.215Z,0
2018-07-08T00:31:15.649Z,0
2018-07-08T00:31:56.109Z,0
2018-07-08T00:32:36.561Z,0
2018-07-08T00:33:17.001Z,0
2018-07-08T00:33:57.332Z,0
2018-07-08T00:34:37.754Z,0
2018-07-08T00:35:18.224Z,0
2018-07-08T00:35:58.657Z,0
2018-07-08T00:38:17.552Z,0
2018-07-08T00:38:57.971Z,0
2018-07-08T00:39:38.416Z,0
2018-07-08T00:40:18.723Z,0
2018-07-08T00:40:59.182Z,0
2018-07-08T00:41:39.609Z,0
2018-07-08T00:42:20.025Z,0
2018-07-08T00:43:00.463Z,0
2018-07-08T00:43:40.971Z,0
2018-07-08T00:44:21.338Z,0
2018-07-08T00:45:01.600Z,0
2018-07-08T00:45:42.122Z,0
2018-07-08T00:46:22.498Z,0
2018-07-08T00:47:02.886Z,0
2018-07-08T00:47:43.303Z,0
2018-07-08T00:48:23.760Z,0
2018-07-08T00:49:04.231Z,0
2018-07-08T00:49:44.574Z,0
2018-07-08T00:50:25.040Z,0
2018-07-08T00:51:05.392Z,0
2018-07-08T00:51:45.722Z,0
2018-07-08T00:52:26.309Z,0
2018-07-08T00:53:06.561Z,0
2018-07-08T00:53:46.949Z,0
2018-07-08T00:54:27.476Z,0
2018-07-08T00:55:07.899Z,0
2018-07-08T00:55:48.234Z,0
2018-07-08T00:56:28.696Z,0
2018-07-08T00:57:09.050Z,0
2018-07-08T00:57:49.484Z,0
2018-07-08T00:58:29.889Z,0
2018-07-08T00:59:10.750Z,0
2018-07-08T00:59:50.940Z,0
2018-07-08T01:00:31.315Z,0
2018-07-08T01:01:11.712Z,0
2018-07-08T01:01:52.111Z,0
2018-07-08T01:02:32.504Z,0
2018-07-08T01:03:12.859Z,0
2018-07-08T01:03:53.310Z,0
2018-07-08T01:04:33.787Z,0
2018-07-08T01:05:14.138Z,0
2018-07-08T01:05:54.547Z,0
2018-07-08T01:06:34.941Z,0
2018-07-08T01:07:15.311Z,0
2018-07-08T01:07:55.800Z,0
2018-07-08T01:08:36.148Z,0
2018-07-08T01:09:16.629Z,0
2018-07-08T01:09:57.002Z,0
2018-07-08T01:10:37.370Z,0
2018-07-08T01:11:17.804Z,0
2018-07-08T01:11:58.204Z,0
2018-07-08T01:12:38.615Z,0
2018-07-08T01:13:19.054Z,0
2018-07-08T01:13:59.387Z,0
2018-07-08T01:14:39.859Z,0
2018-07-08T01:15:23.136Z,0
2018-07-08T01:16:03.560Z,0
2018-07-08T01:16:44.010Z,0
2018-07-08T01:17:24.276Z,0
2018-07-08T01:18:04.719Z,0
2018-07-08T01:18:45.162Z,0
2018-07-08T01:19:25.590Z,0
2018-07-08T01:20:06.087Z,0
2018-07-08T01:20:46.405Z,0
2018-07-08T01:21:26.950Z,0
2018-07-08T01:22:07.344Z,0
2018-07-08T01:22:47.665Z,0
2018-07-08T01:23:28.027Z,0
2018-07-08T01:24:08.608Z,0
2018-07-08T01:24:48.810Z,0
2018-07-08T01:25:29.248Z,0
2018-07-08T01:26:09.652Z,0
2018-07-08T01:26:50.153Z,0
2018-07-08T01:27:30.435Z,0
2018-07-08T01:28:10.827Z,0
2018-07-08T01:28:51.341Z,0
2018-07-08T01:29:31.681Z,0
2018-07-08T01:30:12.304Z,0
2018-07-08T01:30:52.531Z,0
2018-07-08T01:31:33.000Z,0
2018-07-08T01:32:13.379Z,0
2018-07-08T01:32:53.726Z,0
2018-07-08T01:33:34.151Z,0
2018-07-08T01:34:14.605Z,0
2018-07-08T01:34:55.015Z,0
2018-07-08T01:35:35.402Z,0
2018-07-08T01:36:15.835Z,0
2018-07-08T01:36:56.292Z,0
2018-07-08T01:37:36.626Z,0
2018-07-08T01:38:17.048Z,0
2018-07-08T01:38:57.624Z,0
2018-07-08T01:39:38.301Z,0
2018-07-08T01:40:18.685Z,0
2018-07-08T01:40:59.102Z,0
2018-07-08T01:41:39.425Z,0
2018-07-08T01:42:20.014Z,0
2018-07-08T01:43:00.289Z,0
2018-07-08T01:43:40.787Z,0
2018-07-08T01:44:21.332Z,0
2018-07-08T01:45:01.678Z,0
2018-07-08T01:45:42.002Z,0
2018-07-08T01:46:22.490Z,0
2018-07-08T01:47:02.927Z,0
2018-07-08T01:47:43.357Z,0
2018-07-08T01:48:23.738Z,0
2018-07-08T01:49:04.260Z,0
2018-07-08T01:49:44.598Z,0
2018-07-08T01:50:25.064Z,0
2018-07-08T01:51:05.496Z,0
2018-07-08T01:51:45.879Z,0
2018-07-08T01:52:26.295Z,0
2018-07-08T01:53:06.723Z,0
2018-07-08T01:53:47.103Z,0
2018-07-08T01:54:27.533Z,0
2018-07-08T01:55:07.937Z,0
2018-07-08T01:55:48.331Z,0
2018-07-08T01:56:28.833Z,0
2018-07-08T01:57:09.185Z,0
2018-07-08T01:57:49.600Z,0
2018-07-08T01:58:30.012Z,0
2018-07-08T01:59:10.434Z,0
2018-07-08T01:59:50.893Z,0
2018-07-08T02:00:31.250Z,0
2018-07-08T02:01:11.652Z,0
2018-07-08T02:01:52.107Z,0
2018-07-08T02:02:32.418Z,0
2018-07-08T02:03:12.856Z,0
2018-07-08T02:03:53.517Z,0
2018-07-08T02:04:33.790Z,0
2018-07-08T02:05:14.286Z,0
2018-07-08T02:05:54.770Z,0
2018-07-08T02:06:35.115Z,0
2018-07-08T02:07:15.593Z,0
2018-07-08T02:07:56.012Z,0
2018-07-08T02:08:36.380Z,0
2018-07-08T02:09:16.854Z,0
2018-07-08T02:09:57.187Z,0
2018-07-08T02:10:37.672Z,0
2018-07-08T02:11:18.044Z,0
2018-07-08T02:11:58.458Z,0
2018-07-08T02:12:38.859Z,0
2018-07-08T02:13:19.265Z,0
2018-07-08T02:13:59.791Z,0
2018-07-08T02:14:40.076Z,0
2018-07-08T02:15:20.472Z,0
2018-07-08T02:16:00.947Z,0
2018-07-08T02:16:41.356Z,0
2018-07-08T02:17:21.786Z,0
2018-07-08T02:18:02.152Z,0
2018-07-08T02:18:42.567Z,0
2018-07-08T02:19:23.011Z,0
2018-07-08T02:20:03.440Z,0
2018-07-08T02:20:43.837Z,0
2018-07-08T02:21:24.269Z,0
2018-07-08T02:22:04.676Z,0
2018-07-08T02:22:45.211Z,0
2018-07-08T02:23:25.584Z,0
2018-07-08T02:24:06.008Z,0
2018-07-08T02:24:46.392Z,0
2018-07-08T02:25:26.782Z,0
2018-07-08T02:26:07.300Z,0
2018-07-08T02:26:47.658Z,0
2018-07-08T02:27:28.154Z,0
2018-07-08T02:28:08.611Z,0
2018-07-08T02:28:49.030Z,0
2018-07-08T02:29:29.345Z,0
2018-07-08T02:30:09.772Z,0
2018-07-08T02:30:50.250Z,0
2018-07-08T02:31:30.615Z,0
2018-07-08T02:32:11.027Z,0
2018-07-08T02:32:51.442Z,0
2018-07-08T02:33:31.865Z,0
2018-07-08T02:34:12.284Z,0
2018-07-08T02:34:52.748Z,0
2018-07-08T02:35:33.157Z,0
2018-07-08T02:36:16.304Z,0
2018-07-08T02:36:56.675Z,0
2018-07-08T02:37:37.111Z,0
2018-07-08T02:38:17.544Z,0
2018-07-08T02:38:57.979Z,0
2018-07-08T02:39:38.395Z,0
2018-07-08T02:40:18.803Z,0
2018-07-08T02:42:51.678Z,0
2018-07-08T02:43:32.091Z,0
2018-07-08T02:44:12.573Z,0
2018-07-08T02:44:53.030Z,0
2018-07-08T02:45:33.406Z,0
2018-07-08T02:46:13.799Z,0
2018-07-08T02:46:54.335Z,0
2018-07-08T02:47:34.597Z,0
2018-07-08T02:48:14.956Z,0
2018-07-08T02:48:55.408Z,0
2018-07-08T02:49:35.857Z,0
2018-07-08T02:50:16.305Z,0
2018-07-08T02:50:56.755Z,0
2018-07-08T02:51:37.109Z,0
2018-07-08T02:52:17.511Z,0
2018-07-08T02:52:57.939Z,0
2018-07-08T02:53:38.324Z,0
2018-07-08T02:54:18.694Z,0
2018-07-08T02:54:59.113Z,0
2018-07-08T02:55:39.541Z,0
2018-07-08T02:56:19.958Z,0
2018-07-08T02:57:00.429Z,0
2018-07-08T02:57:40.795Z,0
2018-07-08T02:58:21.282Z,0
2018-07-08T02:59:01.655Z,0
2018-07-08T02:59:42.145Z,0
2018-07-08T03:00:22.525Z,0
2018-07-08T03:01:02.932Z,0
2018-07-08T03:01:43.290Z,0
2018-07-08T03:02:23.760Z,0
2018-07-08T03:03:04.164Z,0
2018-07-08T03:03:44.547Z,0
2018-07-08T03:04:24.933Z,0
2018-07-08T03:05:05.334Z,0
2018-07-08T03:05:45.863Z,0
2018-07-08T03:06:26.140Z,0
2018-07-08T03:07:06.568Z,0
2018-07-08T03:07:47.028Z,0
2018-07-08T03:08:27.415Z,0
2018-07-08T03:09:07.835Z,0
2018-07-08T03:09:48.278Z,0
2018-07-08T03:10:28.644Z,0
2018-07-08T03:11:09.090Z,0
2018-07-08T03:11:49.565Z,0
2018-07-08T03:12:29.968Z,0
2018-07-08T03:13:10.348Z,0
2018-07-08T03:13:50.659Z,0
2018-07-08T03:14:31.143Z,0
2018-07-08T03:15:11.634Z,0
2018-07-08T03:15:51.985Z,0
2018-07-08T03:16:32.445Z,0
2018-07-08T03:17:12.867Z,0
2018-07-08T03:17:53.342Z,0
2018-07-08T03:18:33.777Z,0
2018-07-08T03:19:14.264Z,0
2018-07-08T03:19:54.694Z,0
2018-07-08T03:20:35.097Z,0
2018-07-08T03:21:15.430Z,0
2018-07-08T03:21:55.914Z,0
2018-07-08T03:22:36.325Z,0
2018-07-08T03:23:16.847Z,0
2018-07-08T03:23:57.233Z,0
2018-07-08T03:24:37.610Z,0
2018-07-08T03:25:17.982Z,0
2018-07-08T03:25:58.434Z,0
2018-07-08T03:26:38.904Z,0
2018-07-08T03:27:19.273Z,0
2018-07-08T03:27:59.600Z,0
2018-07-08T03:28:40.028Z,0
2018-07-08T03:29:20.415Z,0
2018-07-08T03:30:00.914Z,0
2018-07-08T03:30:41.275Z,0
2018-07-08T03:31:21.736Z,0
2018-07-08T03:32:02.180Z,0
2018-07-08T03:32:42.661Z,0
2018-07-08T03:33:23.172Z,0
2018-07-08T03:34:03.429Z,0
2018-07-08T03:34:43.938Z,0
2018-07-08T03:35:24.262Z,0
2018-07-08T03:37:39.569Z,0
2018-07-08T03:38:18.531Z,0
2018-07-08T03:38:58.988Z,5
2018-07-08T03:39:39.379Z,5
2018-07-08T03:40:19.762Z,5
2018-07-08T03:41:00.246Z,5
2018-07-08T03:41:40.602Z,5
2018-07-08T03:42:21.265Z,5
2018-07-08T03:43:01.685Z,5
2018-07-08T03:43:42.073Z,5
2018-07-08T03:44:22.510Z,5
2018-07-08T03:45:02.922Z,5
2018-07-08T03:45:43.297Z,5
2018-07-08T03:46:23.718Z,5
2018-07-08T03:47:04.176Z,5
2018-07-08T03:47:44.668Z,5
2018-07-08T03:48:25.099Z,5
2018-07-08T03:49:05.580Z,5
2018-07-08T03:49:45.925Z,5
2018-07-08T03:50:26.298Z,5
2018-07-08T03:51:06.724Z,5
2018-07-08T03:51:47.100Z,5
2018-07-08T03:52:27.596Z,5
2018-07-08T03:53:07.935Z,10
2018-07-08T03:53:48.427Z,10
2018-07-08T03:54:28.805Z,10
2018-07-08T03:55:09.227Z,10
2018-07-08T03:55:49.638Z,10
2018-07-08T03:56:30.119Z,10
2018-07-08T03:57:10.561Z,10
2018-07-08T03:57:51.023Z,10
2018-07-08T03:58:31.481Z,10
2018-07-08T03:59:11.926Z,10
2018-07-08T03:59:52.339Z,10
2018-07-08T04:00:32.803Z,10
2018-07-08T04:01:13.183Z,10
2018-07-08T04:01:53.680Z,10
2018-07-08T04:02:34.031Z,10
2018-07-08T04:03:14.451Z,15
2018-07-08T04:44:38.948Z,105
2018-07-08T04:45:19.216Z,105
2018-07-08T04:45:59.611Z,110
2018-07-08T04:46:40.080Z,110
2018-07-08T04:47:20.497Z,115
2018-07-08T04:48:01.031Z,115
2018-07-08T04:48:41.346Z,115
2018-07-08T04:49:21.788Z,115
2018-07-08T04:50:02.161Z,120
2018-07-08T04:50:42.606Z,120
2018-07-08T04:51:22.936Z,120
2018-07-08T04:52:03.367Z,125
2018-07-08T04:52:43.802Z,125
2018-07-08T04:53:24.251Z,125
2018-07-08T04:54:04.712Z,130
2018-07-08T04:54:45.062Z,130
2018-07-08T04:55:25.456Z,135
2018-07-08T04:56:05.866Z,135
2018-07-08T04:56:46.300Z,135
2018-07-08T04:57:26.691Z,140
2018-07-08T04:58:07.129Z,140
2018-07-08T04:58:48.025Z,140
2018-07-08T04:59:28.496Z,140
2018-07-08T05:00:08.997Z,145
2018-07-08T05:00:49.353Z,145
2018-07-08T05:01:29.819Z,145
2018-07-08T05:02:10.313Z,150
2018-07-08T05:02:50.912Z,150
2018-07-08T05:03:31.203Z,155
2018-07-08T05:04:11.898Z,160
2018-07-08T05:04:52.786Z,165
2018-07-08T05:05:33.305Z,160
2018-07-08T05:06:14.072Z,165
2018-07-08T05:06:54.504Z,170
2018-07-08T05:07:35.053Z,175
2018-07-08T05:08:15.931Z,175
2018-07-08T05:08:56.312Z,180
2018-07-08T05:09:37.345Z,180
2018-07-08T05:10:17.598Z,190
2018-07-08T05:10:58.244Z,190
2018-07-08T05:11:38.420Z,195
2018-07-08T05:12:19.223Z,200
2018-07-08T05:12:59.419Z,205
2018-07-08T05:13:40.212Z,205
2018-07-08T05:14:21.066Z,205
2018-07-08T05:15:01.501Z,205
2018-07-08T05:15:42.393Z,205
2018-07-08T05:16:22.846Z,210
2018-07-08T05:17:03.625Z,210
2018-07-08T05:17:43.649Z,215
2018-07-08T05:18:24.578Z,220
2018-07-08T05:19:04.987Z,230
2018-07-08T05:19:45.332Z,230
2018-07-08T05:20:25.800Z,235
2018-07-08T05:21:06.277Z,240
2018-07-08T05:21:46.650Z,245
2018-07-08T05:22:27.252Z,255
2018-07-08T05:23:07.525Z,250
2018-07-08T05:23:48.061Z,245
2018-07-08T05:24:28.339Z,240
2018-07-08T05:25:08.780Z,235
2018-07-08T05:25:49.469Z,240
2018-07-08T05:26:29.777Z,240
2018-07-08T05:27:10.244Z,240
2018-07-08T05:27:50.880Z,245
2018-07-08T05:28:31.214Z,250
2018-07-08T05:29:11.994Z,250
2018-07-08T05:29:53.576Z,255
2018-07-08T05:30:33.861Z,255
2018-07-08T05:31:14.257Z,260
2018-07-08T05:31:54.680Z,260
2018-07-08T05:32:35.412Z,260
2018-07-08T05:33:15.962Z,260
2018-07-08T05:33:56.428Z,265
2018-07-08T05:34:36.821Z,265
2018-07-08T05:35:17.231Z,275
2018-07-08T05:35:57.771Z,275
2018-07-08T05:36:38.241Z,275
2018-07-08T05:37:18.646Z,275
2018-07-08T05:37:59.189Z,270
2018-07-08T05:38:39.567Z,275
2018-07-08T05:39:20.518Z,275
2018-07-08T05:40:00.875Z,280
2018-07-08T05:40:41.383Z,285
2018-07-08T05:41:22.392Z,280
2018-07-08T05:43:39.784Z,290
2018-07-08T05:44:17.597Z,295
2018-07-08T05:44:58.055Z,295
2018-07-08T05:45:38.455Z,295
2018-07-08T05:46:19.162Z,295
2018-07-08T05:46:59.421Z,295
2018-07-08T05:47:40.065Z,300
2018-07-08T05:50:12.443Z,310
2018-07-08T05:50:49.837Z,310
2018-07-08T05:51:30.336Z,320
2018-07-08T05:52:10.686Z,320
2018-07-08T05:52:51.059Z,325
2018-07-08T05:53:31.517Z,330
2018-07-08T05:54:11.947Z,335
2018-07-08T05:54:52.388Z,335
2018-07-08T05:55:32.803Z,335
2018-07-08T05:56:13.217Z,345
2018-07-08T05:56:53.722Z,350
2018-07-08T05:57:34.162Z,355
2018-07-08T05:58:14.583Z,360
2018-07-08T05:58:55.874Z,365
2018-07-08T05:59:36.160Z,360
2018-07-08T06:00:16.647Z,360
2018-07-08T06:00:57.032Z,355
2018-07-08T06:01:37.435Z,355
2018-07-08T06:02:18.087Z,355
2018-07-08T06:02:58.520Z,360
2018-07-08T06:03:38.982Z,360
2018-07-08T06:04:19.400Z,365
2018-07-08T06:05:00.446Z,365
2018-07-08T06:05:40.579Z,380
2018-07-08T06:06:21.026Z,395
2018-07-08T06:07:01.407Z,405
2018-07-08T06:07:41.937Z,405
2018-07-08T06:08:22.243Z,400
2018-07-08T06:09:02.655Z,405
2018-07-08T06:09:43.132Z,405
2018-07-08T06:10:24.722Z,420
2018-07-08T06:11:05.143Z,425
2018-07-08T06:11:45.741Z,435
2018-07-08T06:12:25.917Z,455
2018-07-08T06:13:06.406Z,480
2018-07-08T06:13:47.197Z,510
2018-07-08T06:14:27.566Z,535
2018-07-08T06:15:08.067Z,555
2018-07-08T06:17:46.133Z,560
2018-07-08T06:18:26.510Z,560
2018-07-08T06:19:06.925Z,565
2018-07-08T06:19:47.335Z,585
2018-07-08T06:20:27.881Z,685
2018-07-08T06:21:08.341Z,1025
2018-07-08T06:21:48.695Z,1380
2018-07-08T06:22:29.142Z,1735
2018-07-08T06:23:09.520Z,1810
2018-07-08T06:23:50.011Z,1640
2018-07-08T06:26:22.850Z,1080
2018-07-08T06:27:03.162Z,1085
2018-07-08T06:27:43.585Z,1075
2018-07-08T06:28:23.982Z,1095
2018-07-08T06:29:04.470Z,1120
2018-07-08T06:29:45.371Z,1130
2018-07-08T06:30:25.844Z,1145
2018-07-08T06:31:06.480Z,1185
2018-07-08T06:31:46.878Z,1215
2018-07-08T06:32:27.243Z,1235
2018-07-08T06:33:07.645Z,1285
2018-07-08T06:33:48.088Z,1305
2018-07-08T06:34:28.501Z,1305
2018-07-08T06:35:08.909Z,1290
2018-07-08T06:35:49.346Z,1310
2018-07-08T06:36:29.769Z,1325
2018-07-08T06:37:10.203Z,1365
2018-07-08T06:37:50.596Z,1355
2018-07-08T06:38:31.038Z,1360
2018-07-08T06:39:11.497Z,1390
2018-07-08T06:39:51.887Z,1430
2018-07-08T06:40:32.268Z,1435
2018-07-08T06:41:12.711Z,1420
2018-07-08T06:41:53.396Z,1450
2018-07-08T06:42:33.882Z,1480
2018-07-08T06:43:15.074Z,1460
2018-07-08T06:43:55.458Z,1420
2018-07-08T06:44:35.831Z,1370
2018-07-08T06:45:16.492Z,1355
2018-07-08T06:45:56.917Z,1435
2018-07-08T06:46:37.397Z,1500
2018-07-08T06:47:18.007Z,1550
2018-07-08T06:47:59.867Z,1580
2018-07-08T06:48:40.251Z,1580
2018-07-08T06:49:20.753Z,1575
2018-07-08T06:50:01.256Z,1545
2018-07-08T06:50:41.676Z,1535
2018-07-08T06:51:22.133Z,1500
2018-07-08T06:52:02.599Z,1450
2018-07-08T06:52:42.927Z,1395
2018-07-08T06:53:23.455Z,1195
2018-07-08T06:54:03.932Z,890
2018-07-08T06:54:44.205Z,695
2018-07-08T06:55:25.141Z,645
2018-07-08T06:56:05.517Z,605
2018-07-08T06:56:45.922Z,590
2018-07-08T06:57:26.412Z,575
2018-07-08T06:58:06.991Z,575
2018-07-08T06:58:47.915Z,600
2018-07-08T06:59:28.318Z,610
2018-07-08T07:00:08.929Z,600
2018-07-08T07:00:49.227Z,580
2018-07-08T07:01:29.720Z,585
2018-07-08T07:02:10.280Z,600
2018-07-08T07:02:50.695Z,610
2018-07-08T07:03:31.109Z,610
2018-07-08T07:04:11.786Z,625
2018-07-08T07:04:52.230Z,630
2018-07-08T07:05:32.634Z,635
2018-07-08T07:06:13.037Z,665
2018-07-08T07:06:53.492Z,700
2018-07-08T07:07:33.953Z,715
2018-07-08T07:08:14.439Z,700
2018-07-08T07:08:55.474Z,655
2018-07-08T07:09:35.904Z,640
2018-07-08T07:10:16.347Z,635
2018-07-08T07:10:56.821Z,630
2018-07-08T07:11:37.258Z,610
2018-07-08T07:12:17.770Z,605
2018-07-08T07:12:58.219Z,585
2018-07-08T07:13:38.691Z,585
2018-07-08T07:14:19.137Z,585
2018-07-08T07:14:59.620Z,590
2018-07-08T07:15:40.039Z,590
2018-07-08T07:16:20.842Z,585
2018-07-08T07:17:01.604Z,580
2018-07-08T07:17:42.091Z,580
2018-07-08T07:18:22.508Z,585
2018-07-08T07:19:02.920Z,590
2018-07-08T07:19:43.395Z,600
2018-07-08T07:20:23.789Z,605
2018-07-08T07:21:04.142Z,610
2018-07-08T07:21:44.546Z,600
2018-07-08T07:22:24.985Z,595
2018-07-08T07:23:05.447Z,580
2018-07-08T07:23:45.826Z,575
2018-07-08T07:24:26.384Z,575
2018-07-08T07:25:06.755Z,590
2018-07-08T07:25:47.112Z,585
2018-07-08T07:26:27.563Z,570
2018-07-08T07:27:07.993Z,560
2018-07-08T07:27:48.498Z,550
2018-07-08T07:28:28.858Z,545
2018-07-08T07:29:09.836Z,540
2018-07-08T07:29:50.268Z,540
2018-07-08T07:30:30.973Z,535
2018-07-08T07:31:12.824Z,530
2018-07-08T07:31:52.037Z,510
2018-07-08T07:34:24.322Z,335
2018-07-08T07:35:04.746Z,300
2018-07-08T07:35:45.153Z,280
2018-07-08T07:36:25.633Z,260
2018-07-08T07:37:06.343Z,255
2018-07-08T07:37:46.583Z,240
2018-07-08T07:38:27.718Z,230
2018-07-08T07:39:08.790Z,220
2018-07-08T07:39:49.067Z,215
2018-07-08T07:40:30.088Z,205
2018-07-08T07:41:10.394Z,205
2018-07-08T07:41:50.860Z,195
2018-07-08T07:42:31.274Z,190
2018-07-08T07:43:11.669Z,180
2018-07-08T07:43:52.066Z,175
2018-07-08T07:44:32.549Z,170
2018-07-08T07:45:12.955Z,165
2018-07-08T07:45:53.646Z,160
2018-07-08T07:46:34.071Z,155
2018-07-08T07:47:15.763Z,155
2018-07-08T07:47:56.184Z,150
2018-07-08T07:48:36.555Z,145
2018-07-08T07:49:16.976Z,145
2018-07-08T07:49:57.852Z,140
2018-07-08T07:50:39.181Z,140
2018-07-08T07:51:19.729Z,135
2018-07-08T07:52:00.022Z,135
2018-07-08T07:52:40.429Z,135
2018-07-08T07:53:20.851Z,135
2018-07-08T07:54:01.192Z,130
2018-07-08T07:54:41.717Z,130
2018-07-08T07:55:22.020Z,125
2018-07-08T07:56:02.484Z,125
2018-07-08T07:56:42.922Z,120
2018-07-08T07:57:23.269Z,120
2018-07-08T07:58:03.729Z,120
2018-07-08T07:58:44.381Z,115
2018-07-08T07:59:24.518Z,115
2018-07-08T08:00:04.909Z,115
2018-07-08T08:00:45.319Z,115
2018-07-08T08:01:25.940Z,110
2018-07-08T08:02:06.275Z,110
2018-07-08T08:02:46.714Z,110
2018-07-08T08:03:27.467Z,110
2018-07-08T08:04:07.916Z,110
2018-07-08T08:04:48.383Z,110
2018-07-08T08:07:06.518Z,105
2018-07-08T08:07:46.387Z,105
2018-07-08T08:08:26.766Z,100
2018-07-08T08:09:07.173Z,100
2018-07-08T08:09:48.147Z,100
2018-07-08T08:10:28.588Z,100
2018-07-08T08:11:08.990Z,100
2018-07-08T08:11:49.410Z,100
2018-07-08T08:12:29.877Z,100
2018-07-08T08:15:01.066Z,95
2018-07-08T08:15:42.517Z,95
2018-07-08T08:16:22.984Z,95
2018-07-08T08:17:03.649Z,95
2018-07-08T08:17:44.183Z,95
2018-07-08T08:18:24.597Z,95
2018-07-08T08:19:05.021Z,90
2018-07-08T08:19:45.494Z,90
2018-07-08T08:20:26.118Z,90
2018-07-08T08:21:06.373Z,90
2018-07-08T08:21:46.834Z,90
2018-07-08T08:22:27.142Z,90
2018-07-08T08:23:07.661Z,90
2018-07-08T08:23:48.056Z,90
2018-07-08T08:24:28.538Z,90
2018-07-08T08:25:08.912Z,90
2018-07-08T08:25:49.328Z,90
2018-07-08T08:26:29.768Z,90
2018-07-08T08:27:10.864Z,85
2018-07-08T08:27:51.227Z,85
2018-07-08T08:28:31.609Z,85
2018-07-08T08:29:12.022Z,85
2018-07-08T08:29:52.427Z,85
2018-07-08T08:30:32.871Z,85
2018-07-08T08:31:13.319Z,85
2018-07-08T08:31:53.713Z,85
2018-07-08T08:32:34.156Z,85
2018-07-08T08:33:14.578Z,85
2018-07-08T08:33:55.029Z,85
2018-07-08T08:34:35.394Z,85
2018-07-08T08:35:15.852Z,80
2018-07-08T08:35:56.223Z,80
2018-07-08T08:36:36.640Z,80
2018-07-08T08:37:17.033Z,80
2018-07-08T08:37:57.525Z,80
2018-07-08T08:38:37.908Z,80
2018-07-08T08:39:18.315Z,80
2018-07-08T08:39:58.732Z,80
2018-07-08T08:40:39.160Z,80
2018-07-08T08:41:19.595Z,80
2018-07-08T08:42:00.041Z,80
2018-07-08T08:42:40.558Z,80
2018-07-08T08:43:21.070Z,80
2018-07-08T08:44:01.389Z,80
2018-07-08T08:44:41.781Z,80
2018-07-08T08:45:22.274Z,80
2018-07-08T08:46:03.134Z,80
2018-07-08T08:46:43.569Z,80
2018-07-08T08:47:23.955Z,80
2018-07-08T08:48:04.440Z,75
2018-07-08T08:48:44.851Z,75
2018-07-08T08:49:25.252Z,75
2018-07-08T08:50:05.691Z,75
2018-07-08T08:50:46.081Z,75
2018-07-08T08:51:26.591Z,75
2018-07-08T08:52:06.958Z,75
2018-07-08T08:52:47.404Z,75
2018-07-08T08:53:27.857Z,75
2018-07-08T08:54:08.299Z,75
2018-07-08T08:54:48.816Z,75
2018-07-08T08:55:29.406Z,75
2018-07-08T08:56:10.083Z,75
2018-07-08T08:56:50.528Z,75
2018-07-08T08:57:31.467Z,75
2018-07-08T08:58:11.819Z,75
2018-07-08T08:58:52.370Z,75
2018-07-08T08:59:32.696Z,75
2018-07-08T09:00:13.140Z,75
2018-07-08T09:00:53.561Z,75
2018-07-08T09:01:34.076Z,75
2018-07-08T09:02:14.426Z,75
2018-07-08T09:02:54.852Z,80
2018-07-08T09:03:35.284Z,75
2018-07-08T09:04:15.690Z,75
2018-07-08T09:04:56.099Z,75
2018-07-08T09:05:36.519Z,75
2018-07-08T09:06:16.984Z,75
2018-07-08T09:06:57.296Z,75
2018-07-08T09:07:37.704Z,75
2018-07-08T09:08:18.170Z,75
2018-07-08T09:08:58.643Z,75
2018-07-08T09:09:39.060Z,75
2018-07-08T09:10:20.336Z,75
2018-07-08T09:11:00.804Z,75
2018-07-08T09:11:41.361Z,75
2018-07-08T09:12:21.720Z,70
2018-07-08T09:13:02.190Z,70
2018-07-08T09:13:42.524Z,70
2018-07-08T09:14:23.605Z,70
2018-07-08T09:15:03.893Z,70
2018-07-08T09:15:44.457Z,70
2018-07-08T09:16:24.694Z,70
2018-07-08T09:17:05.544Z,70
2018-07-08T09:17:46.070Z,70
2018-07-08T09:18:26.495Z,70
2018-07-08T09:19:06.935Z,70
2018-07-08T09:19:47.444Z,70
2018-07-08T09:20:28.093Z,70
2018-07-08T09:21:08.502Z,70
2018-07-08T09:21:48.909Z,70
2018-07-08T09:22:29.309Z,70
2018-07-08T09:23:09.753Z,70
2018-07-08T09:23:50.269Z,70
2018-07-08T09:24:31.339Z,70
2018-07-08T09:25:11.773Z,70
2018-07-08T09:25:52.287Z,70
2018-07-08T09:26:32.775Z,70
2018-07-08T09:27:13.369Z,70
2018-07-08T09:27:53.826Z,70
2018-07-08T09:28:34.413Z,70
2018-07-08T09:29:14.734Z,70
2018-07-08T09:29:55.351Z,70
2018-07-08T09:30:35.964Z,70
2018-07-08T09:31:16.347Z,70
2018-07-08T09:31:56.793Z,70
2018-07-08T09:34:31.649Z,70
2018-07-08T09:35:12.036Z,70
2018-07-08T09:35:52.588Z,70
2018-07-08T09:36:32.976Z,70
2018-07-08T09:37:13.645Z,70
2018-07-08T09:37:54.591Z,70
2018-07-08T09:38:35.016Z,70
2018-07-08T09:39:15.461Z,70
2018-07-08T09:39:55.981Z,70
2018-07-08T09:40:36.355Z,70
2018-07-08T09:41:18.532Z,70
2018-07-08T09:41:59.173Z,70
2018-07-08T09:42:39.447Z,70
2018-07-08T09:43:19.902Z,70
2018-07-08T09:44:00.277Z,65
2018-07-08T09:44:40.733Z,65
2018-07-08T09:45:21.254Z,65
2018-07-08T09:46:01.701Z,65
2018-07-08T09:46:42.058Z,65
2018-07-08T09:47:22.527Z,65
2018-07-08T09:48:03.419Z,65
2018-07-08T09:48:44.499Z,65
2018-07-08T09:49:24.856Z,65
2018-07-08T09:50:05.351Z,65
2018-07-08T09:50:45.805Z,65
2018-07-08T09:51:26.403Z,65
2018-07-08T09:52:06.841Z,65
2018-07-08T09:52:47.376Z,65
2018-07-08T09:53:27.811Z,65
2018-07-08T09:54:08.234Z,65
2018-07-08T09:54:48.674Z,65
2018-07-08T09:55:29.131Z,65
2018-07-08T09:59:22.712Z,65
2018-07-08T10:00:03.102Z,65
2018-07-08T10:00:43.303Z,65
2018-07-08T10:01:23.776Z,65
2018-07-08T10:02:04.264Z,65
2018-07-08T10:02:45.024Z,65
2018-07-08T10:03:25.411Z,65
2018-07-08T10:04:05.862Z,65
2018-07-08T10:04:46.281Z,65
2018-07-08T10:05:26.742Z,65
2018-07-08T10:47:57.400Z,60
2018-07-08T10:48:37.968Z,60
2018-07-08T10:49:18.206Z,60
2018-07-08T10:49:58.648Z,60
2018-07-08T10:50:39.253Z,60
2018-07-08T10:51:19.706Z,60
2018-07-08T10:52:00.127Z,60
2018-07-08T10:52:40.473Z,60
2018-07-08T10:53:20.957Z,60
2018-07-08T10:54:01.350Z,60
2018-07-08T10:54:41.855Z,60
2018-07-08T10:55:22.307Z,60
2018-07-08T10:58:02.838Z,60
2018-07-08T10:58:43.174Z,60
2018-07-08T10:59:23.533Z,60
2018-07-08T11:00:04.048Z,60
2018-07-08T11:00:44.439Z,60
2018-07-08T11:01:25.155Z,60
2018-07-08T11:02:05.418Z,60
2018-07-08T11:02:46.016Z,60
2018-07-08T11:03:26.957Z,60
2018-07-08T11:04:07.618Z,60
2018-07-08T11:04:48.222Z,60
2018-07-08T11:05:28.608Z,65
2018-07-08T11:06:09.426Z,60
2018-07-08T11:06:49.667Z,65
2018-07-08T11:07:29.978Z,60
2018-07-08T11:08:10.628Z,60
2018-07-08T11:08:51.110Z,60
2018-07-08T11:09:31.507Z,60
2018-07-08T11:12:10.949Z,60
2018-07-08T11:12:51.315Z,60
2018-07-08T11:13:31.854Z,60
2018-07-08T11:16:10.051Z,60
2018-07-08T11:16:50.494Z,60
2018-07-08T11:17:31.374Z,60
2018-07-08T11:18:11.860Z,60
2018-07-08T11:18:52.238Z,60
2018-07-08T11:19:33.501Z,60
2018-07-08T11:20:14.025Z,60
2018-07-08T11:20:54.731Z,60
2018-07-08T11:21:35.141Z,60
2018-07-08T11:22:15.697Z,60
2018-07-08T11:22:56.326Z,60
2018-07-08T11:23:36.684Z,60
2018-07-08T11:24:17.058Z,60
2018-07-08T11:24:57.465Z,60
2018-07-08T11:25:38.000Z,60
2018-07-08T11:26:18.439Z,60
2018-07-08T11:26:58.955Z,60
2018-07-08T11:27:39.621Z,60
2018-07-08T11:28:20.265Z,60